Flemington, Georgia
Current Conditions -  °F | °C
As of 7:58 PM on Saturday 22 Nov 2014 (Local Time) from KLHW Reporting Station
Light Rain Light Rain  
Wind Chill: 59°   Ceiling: 8500
Heat Index: 59°   Visibility: 10mi
Dew Point: 55°   Wind: 6mph
Humidity: 86%   Direction: 80°E
Pressure: 30.26"   Gusts: NA
Location:  31.9224°N, 81.6243°W
Report Text: KLHW 230058Z AUTO 08005KT 10SM -RA FEW031 OVC085 15/13 A3026 RMK AO2 RAB0033 SLP250 P0000 T01480125
Loading
Personal Weather Stations






























Interactive Weather Map New forecast layout! Learn more

10-Day Weather Forecast

Advertisements
Track Severe Weather on mobile